sensor_id;sensor_type;location;lat;lon;timestamp;pressure;altitude;pressure_sealevel;temperature;humidity
58753;BME280;44525;46.052;13.610;2023-04-09T00:00:33;101130.38;;;9.08;nan
58753;BME280;44525;46.052;13.610;2023-04-09T00:02:58;101116.84;;;9.13;nan
58753;BME280;44525;46.052;13.610;2023-04-09T00:05:24;101121.13;;;9.04;nan
58753;BME280;44525;46.052;13.610;2023-04-09T00:07:49;101114.72;;;8.83;nan
58753;BME280;44525;46.052;13.610;2023-04-09T00:10:15;101125.94;;;8.97;nan
58753;BME280;44525;46.052;13.610;2023-04-09T00:12:40;101124.00;;;8.92;nan
58753;BME280;44525;46.052;13.610;2023-04-09T00:15:05;101125.81;;;8.82;nan
58753;BME280;44525;46.052;13.610;2023-04-09T00:17:31;101116.31;;;8.79;nan
58753;BME280;44525;46.052;13.610;2023-04-09T00:19:56;101125.66;;;8.66;nan
58753;BME280;44525;46.052;13.610;2023-04-09T00:22:21;101114.97;;;8.82;nan
58753;BME280;44525;46.052;13.610;2023-04-09T00:24:46;101115.63;;;8.94;nan
58753;BME280;44525;46.052;13.610;2023-04-09T00:27:12;101112.63;;;8.90;nan
58753;BME280;44525;46.052;13.610;2023-04-09T00:29:37;101116.59;;;8.83;nan
58753;BME280;44525;46.052;13.610;2023-04-09T00:32:02;101118.97;;;9.06;nan
58753;BME280;44525;46.052;13.610;2023-04-09T00:34:27;101121.41;;;9.08;nan
58753;BME280;44525;46.052;13.610;2023-04-09T00:36:52;101121.00;;;8.89;nan
58753;BME280;44525;46.052;13.610;2023-04-09T00:39:18;101120.34;;;8.76;nan
58753;BME280;44525;46.052;13.610;2023-04-09T00:41:43;101120.25;;;8.66;nan
58753;BME280;44525;46.052;13.610;2023-04-09T00:44:08;101126.16;;;8.63;nan
58753;BME280;44525;46.052;13.610;2023-04-09T00:46:33;101127.22;;;8.62;nan
58753;BME280;44525;46.052;13.610;2023-04-09T00:48:59;101131.22;;;8.54;nan
58753;BME280;44525;46.052;13.610;2023-04-09T00:51:24;101132.66;;;8.62;nan
58753;BME280;44525;46.052;13.610;2023-04-09T00:53:50;101135.34;;;8.62;nan
58753;BME280;44525;46.052;13.610;2023-04-09T00:56:17;101132.19;;;8.70;nan
58753;BME280;44525;46.052;13.610;2023-04-09T00:58:43;101125.25;;;8.52;nan
58753;BME280;44525;46.052;13.610;2023-04-09T01:01:08;101130.78;;;8.63;nan
58753;BME280;44525;46.052;13.610;2023-04-09T01:03:33;101130.34;;;8.49;nan
58753;BME280;44525;46.052;13.610;2023-04-09T01:06:03;101121.53;;;8.36;nan
58753;BME280;44525;46.052;13.610;2023-04-09T01:11:01;101120.34;;;8.49;nan
58753;BME280;44525;46.052;13.610;2023-04-09T01:13:29;101122.94;;;8.39;nan
58753;BME280;44525;46.052;13.610;2023-04-09T01:15:55;101120.16;;;8.34;nan
58753;BME280;44525;46.052;13.610;2023-04-09T01:18:22;101114.06;;;8.21;nan
58753;BME280;44525;46.052;13.610;2023-04-09T01:23:28;101116.97;;;8.64;nan
58753;BME280;44525;46.052;13.610;2023-04-09T01:26:09;101117.19;;;8.85;nan
58753;BME280;44525;46.052;13.610;2023-04-09T01:28:44;101114.88;;;8.71;nan
58753;BME280;44525;46.052;13.610;2023-04-09T01:31:10;101118.72;;;8.75;nan
58753;BME280;44525;46.052;13.610;2023-04-09T01:33:37;101121.88;;;8.67;nan
58753;BME280;44525;46.052;13.610;2023-04-09T01:36:03;101121.38;;;8.70;nan
58753;BME280;44525;46.052;13.610;2023-04-09T01:38:30;101120.81;;;8.68;nan
58753;BME280;44525;46.052;13.610;2023-04-09T01:40:55;101119.22;;;8.72;nan
58753;BME280;44525;46.052;13.610;2023-04-09T01:43:21;101118.25;;;8.84;nan
58753;BME280;44525;46.052;13.610;2023-04-09T01:45:47;101117.78;;;8.65;nan
58753;BME280;44525;46.052;13.610;2023-04-09T01:48:14;101115.56;;;8.56;nan
58753;BME280;44525;46.052;13.610;2023-04-09T01:50:40;101117.13;;;8.80;nan
58753;BME280;44525;46.052;13.610;2023-04-09T01:53:05;101121.97;;;8.77;nan
58753;BME280;44525;46.052;13.610;2023-04-09T01:55:31;101124.78;;;8.88;nan
58753;BME280;44525;46.052;13.610;2023-04-09T01:57:56;101121.38;;;8.70;nan
58753;BME280;44525;46.052;13.610;2023-04-09T02:00:22;101116.50;;;8.72;nan
58753;BME280;44525;46.052;13.610;2023-04-09T02:05:16;101117.38;;;8.78;nan
58753;BME280;44525;46.052;13.610;2023-04-09T02:07:44;101118.66;;;8.70;nan
58753;BME280;44525;46.052;13.610;2023-04-09T02:10:11;101116.19;;;8.64;nan
58753;BME280;44525;46.052;13.610;2023-04-09T02:12:37;101108.63;;;8.71;nan
58753;BME280;44525;46.052;13.610;2023-04-09T02:15:04;101109.16;;;8.68;nan
58753;BME280;44525;46.052;13.610;2023-04-09T02:17:30;101115.44;;;8.73;nan
58753;BME280;44525;46.052;13.610;2023-04-09T02:19:56;101110.72;;;8.36;nan
58753;BME280;44525;46.052;13.610;2023-04-09T02:22:21;101121.50;;;8.53;nan
58753;BME280;44525;46.052;13.610;2023-04-09T02:24:47;101114.47;;;8.57;nan
58753;BME280;44525;46.052;13.610;2023-04-09T02:27:12;101121.91;;;8.72;nan
58753;BME280;44525;46.052;13.610;2023-04-09T02:29:38;101106.69;;;8.66;nan
58753;BME280;44525;46.052;13.610;2023-04-09T02:32:03;101115.56;;;8.56;nan
58753;BME280;44525;46.052;13.610;2023-04-09T02:34:29;101115.34;;;8.63;nan
58753;BME280;44525;46.052;13.610;2023-04-09T02:36:54;101106.16;;;8.64;nan
58753;BME280;44525;46.052;13.610;2023-04-09T02:39:19;101104.41;;;8.53;nan
58753;BME280;44525;46.052;13.610;2023-04-09T02:41:44;101098.19;;;8.52;nan
58753;BME280;44525;46.052;13.610;2023-04-09T02:44:10;101102.63;;;8.64;nan
58753;BME280;44525;46.052;13.610;2023-04-09T02:46:37;101088.94;;;8.48;nan
58753;BME280;44525;46.052;13.610;2023-04-09T02:49:02;101094.72;;;8.57;nan
58753;BME280;44525;46.052;13.610;2023-04-09T02:51:27;101102.28;;;8.55;nan
58753;BME280;44525;46.052;13.610;2023-04-09T02:53:52;101094.81;;;8.67;nan
58753;BME280;44525;46.052;13.610;2023-04-09T02:56:18;101093.25;;;8.76;nan
58753;BME280;44525;46.052;13.610;2023-04-09T02:58:43;101111.09;;;8.72;nan
58753;BME280;44525;46.052;13.610;2023-04-09T03:01:08;101103.09;;;8.55;nan
58753;BME280;44525;46.052;13.610;2023-04-09T03:03:33;101107.59;;;8.45;nan
58753;BME280;44525;46.052;13.610;2023-04-09T03:05:58;101104.28;;;8.42;nan
58753;BME280;44525;46.052;13.610;2023-04-09T03:08:24;101106.06;;;8.54;nan
58753;BME280;44525;46.052;13.610;2023-04-09T03:10:49;101096.97;;;8.65;nan
58753;BME280;44525;46.052;13.610;2023-04-09T03:13:14;101097.41;;;8.57;nan
58753;BME280;44525;46.052;13.610;2023-04-09T03:15:39;101101.69;;;8.53;nan
58753;BME280;44525;46.052;13.610;2023-04-09T03:18:05;101101.69;;;8.53;nan
58753;BME280;44525;46.052;13.610;2023-04-09T03:20:30;101102.59;;;8.36;nan
58753;BME280;44525;46.052;13.610;2023-04-09T03:22:55;101106.25;;;8.47;nan
58753;BME280;44525;46.052;13.610;2023-04-09T03:25:21;101101.78;;;8.58;nan
58753;BME280;44525;46.052;13.610;2023-04-09T03:27:46;101091.66;;;8.48;nan
58753;BME280;44525;46.052;13.610;2023-04-09T03:30:11;101102.59;;;8.36;nan
58753;BME280;44525;46.052;13.610;2023-04-09T03:32:36;101097.41;;;8.57;nan
58753;BME280;44525;46.052;13.610;2023-04-09T03:35:02;101100.56;;;8.49;nan
58753;BME280;44525;46.052;13.610;2023-04-09T03:37:27;101092.56;;;8.59;nan
58753;BME280;44525;46.052;13.610;2023-04-09T03:39:52;101094.06;;;8.45;nan
58753;BME280;44525;46.052;13.610;2023-04-09T03:42:17;101092.97;;;8.46;nan
58753;BME280;44525;46.052;13.610;2023-04-09T03:44:43;101093.59;;;8.53;nan
58753;BME280;44525;46.052;13.610;2023-04-09T03:47:08;101089.84;;;8.59;nan
58753;BME280;44525;46.052;13.610;2023-04-09T03:49:34;101089.09;;;8.64;nan
58753;BME280;44525;46.052;13.610;2023-04-09T03:51:59;101099.00;;;8.53;nan
58753;BME280;44525;46.052;13.610;2023-04-09T03:54:27;101100.75;;;8.42;nan
58753;BME280;44525;46.052;13.610;2023-04-09T03:56:52;101105.00;;;8.55;nan
58753;BME280;44525;46.052;13.610;2023-04-09T03:59:18;101107.22;;;8.63;nan
58753;BME280;44525;46.052;13.610;2023-04-09T04:01:43;101107.44;;;8.34;nan
58753;BME280;44525;46.052;13.610;2023-04-09T04:04:08;101111.72;;;8.30;nan
58753;BME280;44525;46.052;13.610;2023-04-09T04:06:33;101109.69;;;8.42;nan
58753;BME280;44525;46.052;13.610;2023-04-09T04:08:59;101126.31;;;8.29;nan
58753;BME280;44525;46.052;13.610;2023-04-09T04:11:24;101112.75;;;8.24;nan
58753;BME280;44525;46.052;13.610;2023-04-09T04:13:50;101127.34;;;8.01;nan
58753;BME280;44525;46.052;13.610;2023-04-09T04:16:15;101125.47;;;8.01;nan
58753;BME280;44525;46.052;13.610;2023-04-09T04:18:40;101128.91;;;7.97;nan
58753;BME280;44525;46.052;13.610;2023-04-09T04:21:11;101129.75;;;7.97;nan
58753;BME280;44525;46.052;13.610;2023-04-09T04:23:36;101121.84;;;8.18;nan
58753;BME280;44525;46.052;13.610;2023-04-09T04:26:01;101121.94;;;8.23;nan
58753;BME280;44525;46.052;13.610;2023-04-09T04:28:33;101117.66;;;8.27;nan
58753;BME280;44525;46.052;13.610;2023-04-09T04:30:59;101116.22;;;8.19;nan
58753;BME280;44525;46.052;13.610;2023-04-09T04:33:24;101120.78;;;8.19;nan
58753;BME280;44525;46.052;13.610;2023-04-09T04:35:49;101124.94;;;8.04;nan
58753;BME280;44525;46.052;13.610;2023-04-09T04:38:14;101122.94;;;8.17;nan
58753;BME280;44525;46.052;13.610;2023-04-09T04:40:39;101120.78;;;8.19;nan
58753;BME280;44525;46.052;13.610;2023-04-09T04:43:05;101130.09;;;8.06;nan
58753;BME280;44525;46.052;13.610;2023-04-09T04:45:30;101135.28;;;8.07;nan
58753;BME280;44525;46.052;13.610;2023-04-09T04:47:55;101135.22;;;8.02;nan
58753;BME280;44525;46.052;13.610;2023-04-09T04:50:20;101126.53;;;8.22;nan
58753;BME280;44525;46.052;13.610;2023-04-09T04:52:45;101127.84;;;8.20;nan
58753;BME280;44525;46.052;13.610;2023-04-09T04:55:11;101124.13;;;8.26;nan
58753;BME280;44525;46.052;13.610;2023-04-09T04:57:36;101124.91;;;8.21;nan
58753;BME280;44525;46.052;13.610;2023-04-09T05:00:01;101131.13;;;8.22;nan
58753;BME280;44525;46.052;13.610;2023-04-09T05:02:26;101144.25;;;8.13;nan
58753;BME280;44525;46.052;13.610;2023-04-09T05:04:52;101125.91;;;8.15;nan
58753;BME280;44525;46.052;13.610;2023-04-09T05:07:17;101142.41;;;7.92;nan
58753;BME280;44525;46.052;13.610;2023-04-09T05:09:42;101130.84;;;7.79;nan
58753;BME280;44525;46.052;13.610;2023-04-09T05:12:08;101131.59;;;7.75;nan
58753;BME280;44525;46.052;13.610;2023-04-09T05:14:33;101139.56;;;7.81;nan
58753;BME280;44525;46.052;13.610;2023-04-09T05:16:58;101133.25;;;7.76;nan
58753;BME280;44525;46.052;13.610;2023-04-09T05:19:24;101135.03;;;7.87;nan
58753;BME280;44525;46.052;13.610;2023-04-09T05:21:49;101139.47;;;7.76;nan
58753;BME280;44525;46.052;13.610;2023-04-09T05:24:14;101132.63;;;7.68;nan
58753;BME280;44525;46.052;13.610;2023-04-09T05:26:39;101145.72;;;7.60;nan
58753;BME280;44525;46.052;13.610;2023-04-09T05:29:04;101138.72;;;7.81;nan
58753;BME280;44525;46.052;13.610;2023-04-09T05:31:30;101147.13;;;7.62;nan
58753;BME280;44525;46.052;13.610;2023-04-09T05:33:55;101145.97;;;7.75;nan
58753;BME280;44525;46.052;13.610;2023-04-09T05:36:21;101154.78;;;8.10;nan
58753;BME280;44525;46.052;13.610;2023-04-09T05:38:46;101136.63;;;8.32;nan
58753;BME280;44525;46.052;13.610;2023-04-09T05:41:12;101140.66;;;8.52;nan
58753;BME280;44525;46.052;13.610;2023-04-09T05:43:38;101147.13;;;8.73;nan
58753;BME280;44525;46.052;13.610;2023-04-09T05:46:03;101142.75;;;8.67;nan
58753;BME280;44525;46.052;13.610;2023-04-09T05:48:28;101141.38;;;8.97;nan
58753;BME280;44525;46.052;13.610;2023-04-09T05:50:54;101141.72;;;9.05;nan
58753;BME280;44525;46.052;13.610;2023-04-09T05:53:19;101148.28;;;9.52;nan
58753;BME280;44525;46.052;13.610;2023-04-09T05:55:45;101146.34;;;9.42;nan
58753;BME280;44525;46.052;13.610;2023-04-09T05:58:12;101153.03;;;9.72;nan
58753;BME280;44525;46.052;13.610;2023-04-09T06:00:37;101153.19;;;10.03;nan
58753;BME280;44525;46.052;13.610;2023-04-09T06:03:03;101155.47;;;10.27;nan
58753;BME280;44525;46.052;13.610;2023-04-09T06:05:28;101161.38;;;10.18;nan
58753;BME280;44525;46.052;13.610;2023-04-09T06:07:53;101156.53;;;10.26;nan
58753;BME280;44525;46.052;13.610;2023-04-09T06:10:18;101155.16;;;10.18;nan
58753;BME280;44525;46.052;13.610;2023-04-09T06:12:44;101156.06;;;10.34;nan
58753;BME280;44525;46.052;13.610;2023-04-09T06:15:09;101156.66;;;10.57;nan
58753;BME280;44525;46.052;13.610;2023-04-09T06:17:34;101164.84;;;10.62;nan
58753;BME280;44525;46.052;13.610;2023-04-09T06:20:00;101162.97;;;10.83;nan
58753;BME280;44525;46.052;13.610;2023-04-09T06:22:25;101170.56;;;10.76;nan
58753;BME280;44525;46.052;13.610;2023-04-09T06:24:50;101164.00;;;10.61;nan
58753;BME280;44525;46.052;13.610;2023-04-09T06:27:15;101165.63;;;10.52;nan
58753;BME280;44525;46.052;13.610;2023-04-09T06:29:43;101169.94;;;10.48;nan
58753;BME280;44525;46.052;13.610;2023-04-09T06:32:08;101170.22;;;10.41;nan
58753;BME280;44525;46.052;13.610;2023-04-09T06:34:33;101185.53;;;10.88;nan
58753;BME280;44525;46.052;13.610;2023-04-09T06:36:58;101164.84;;;10.72;nan
58753;BME280;44525;46.052;13.610;2023-04-09T06:39:23;101176.78;;;10.71;nan
58753;BME280;44525;46.052;13.610;2023-04-09T06:41:49;101171.38;;;10.86;nan
58753;BME280;44525;46.052;13.610;2023-04-09T06:44:14;101181.97;;;10.73;nan
58753;BME280;44525;46.052;13.610;2023-04-09T06:46:39;101172.47;;;10.80;nan
58753;BME280;44525;46.052;13.610;2023-04-09T06:49:05;101177.09;;;11.26;nan
58753;BME280;44525;46.052;13.610;2023-04-09T06:51:30;101179.03;;;11.46;nan
58753;BME280;44525;46.052;13.610;2023-04-09T06:53:55;101172.47;;;11.52;nan
58753;BME280;44525;46.052;13.610;2023-04-09T06:56:21;101174.59;;;11.86;nan
58753;BME280;44525;46.052;13.610;2023-04-09T06:58:46;101171.28;;;12.10;nan
58753;BME280;44525;46.052;13.610;2023-04-09T07:01:11;101175.41;;;12.57;nan
58753;BME280;44525;46.052;13.610;2023-04-09T07:03:36;101178.13;;;12.62;nan
58753;BME280;44525;46.052;13.610;2023-04-09T07:06:02;101168.69;;;12.84;nan
58753;BME280;44525;46.052;13.610;2023-04-09T07:08:28;101164.53;;;13.61;nan
58753;BME280;44525;46.052;13.610;2023-04-09T07:10:53;101172.44;;;13.62;nan
58753;BME280;44525;46.052;13.610;2023-04-09T07:13:18;101176.31;;;13.85;nan
58753;BME280;44525;46.052;13.610;2023-04-09T07:15:43;101179.06;;;14.29;nan
58753;BME280;44525;46.052;13.610;2023-04-09T07:18:08;101178.06;;;13.47;nan
58753;BME280;44525;46.052;13.610;2023-04-09T07:20:34;101173.56;;;13.27;nan
58753;BME280;44525;46.052;13.610;2023-04-09T07:22:59;101177.41;;;13.84;nan
58753;BME280;44525;46.052;13.610;2023-04-09T07:25:24;101191.63;;;13.52;nan
58753;BME280;44525;46.052;13.610;2023-04-09T07:27:50;101183.22;;;13.78;nan
58753;BME280;44525;46.052;13.610;2023-04-09T07:30:15;101189.66;;;14.35;nan
58753;BME280;44525;46.052;13.610;2023-04-09T07:32:41;101190.75;;;14.34;nan
58753;BME280;44525;46.052;13.610;2023-04-09T07:35:06;101187.50;;;13.84;nan
58753;BME280;44525;46.052;13.610;2023-04-09T07:37:31;101184.03;;;14.02;nan
58753;BME280;44525;46.052;13.610;2023-04-09T07:39:57;101187.09;;;14.20;nan
58753;BME280;44525;46.052;13.610;2023-04-09T07:42:22;101182.63;;;13.81;nan
58753;BME280;44525;46.052;13.610;2023-04-09T07:44:47;101192.22;;;13.78;nan
58753;BME280;44525;46.052;13.610;2023-04-09T07:47:13;101191.16;;;14.23;nan
58753;BME280;44525;46.052;13.610;2023-04-09T07:52:03;65501.63;;;14.33;100.00
58753;BME280;44525;46.052;13.610;2023-04-09T07:54:29;65501.63;;;-149.14;100.00
58753;BME280;44525;46.052;13.610;2023-04-09T07:56:55;65501.63;;;-149.14;100.00
58753;BME280;44525;46.052;13.610;2023-04-09T07:59:20;65501.63;;;-149.14;100.00
58753;BME280;44525;46.052;13.610;2023-04-09T08:01:46;65501.63;;;-149.14;100.00
58753;BME280;44525;46.052;13.610;2023-04-09T08:04:11;65501.63;;;-149.14;100.00
58753;BME280;44525;46.052;13.610;2023-04-09T08:06:37;65501.63;;;-149.14;100.00
58753;BME280;44525;46.052;13.610;2023-04-09T08:09:02;65501.63;;;-149.14;100.00
58753;BME280;44525;46.052;13.610;2023-04-09T08:11:27;65501.63;;;-149.14;100.00
58753;BME280;44525;46.052;13.610;2023-04-09T08:13:52;65501.63;;;-149.14;100.00
58753;BME280;44525;46.052;13.610;2023-04-09T08:16:18;85324.31;;;14.59;100.00
58753;BME280;44525;46.052;13.610;2023-04-09T08:18:45;65501.63;;;-149.14;100.00
58753;BME280;44525;46.052;13.610;2023-04-09T08:21:10;65501.63;;;-149.14;100.00
58753;BME280;44525;46.052;13.610;2023-04-09T08:23:35;65501.63;;;-149.14;100.00
58753;BME280;44525;46.052;13.610;2023-04-09T08:26:01;65501.63;;;-149.14;100.00
58753;BME280;44525;46.052;13.610;2023-04-09T08:28:26;65501.63;;;-149.14;100.00
58753;BME280;44525;46.052;13.610;2023-04-09T08:30:52;65501.63;;;-149.14;100.00
58753;BME280;44525;46.052;13.610;2023-04-09T08:33:17;65501.63;;;-149.14;100.00
58753;BME280;44525;46.052;13.610;2023-04-09T08:35:42;65501.63;;;-149.14;100.00
58753;BME280;44525;46.052;13.610;2023-04-09T08:38:08;65501.63;;;-149.14;100.00
58753;BME280;44525;46.052;13.610;2023-04-09T08:40:34;65501.63;;;-149.14;100.00
58753;BME280;44525;46.052;13.610;2023-04-09T08:43:00;65501.63;;;-149.14;100.00
58753;BME280;44525;46.052;13.610;2023-04-09T08:45:28;65501.63;;;-149.14;100.00
58753;BME280;44525;46.052;13.610;2023-04-09T08:47:53;65501.63;;;-149.14;100.00
58753;BME280;44525;46.052;13.610;2023-04-09T08:50:19;65501.63;;;-149.14;100.00
58753;BME280;44525;46.052;13.610;2023-04-09T08:52:45;65501.63;;;-149.14;100.00
58753;BME280;44525;46.052;13.610;2023-04-09T08:55:11;65501.63;;;-149.14;100.00
58753;BME280;44525;46.052;13.610;2023-04-09T08:57:39;65501.63;;;-149.14;100.00
58753;BME280;44525;46.052;13.610;2023-04-09T09:00:05;65501.63;;;-149.14;100.00
58753;BME280;44525;46.052;13.610;2023-04-09T09:02:31;65501.63;;;-149.14;100.00
58753;BME280;44525;46.052;13.610;2023-04-09T09:04:56;65501.63;;;-149.14;100.00
58753;BME280;44525;46.052;13.610;2023-04-09T09:07:25;65501.63;;;-149.14;100.00
58753;BME280;44525;46.052;13.610;2023-04-09T09:09:52;65501.63;;;-149.14;100.00
58753;BME280;44525;46.052;13.610;2023-04-09T09:12:33;65501.63;;;-149.14;100.00
58753;BME280;44525;46.052;13.610;2023-04-09T09:14:59;65501.63;;;-149.14;100.00
58753;BME280;44525;46.052;13.610;2023-04-09T09:17:24;65501.63;;;-149.14;100.00
58753;BME280;44525;46.052;13.610;2023-04-09T09:19:50;65501.63;;;-149.14;100.00
58753;BME280;44525;46.052;13.610;2023-04-09T09:22:16;65501.63;;;-149.14;100.00
58753;BME280;44525;46.052;13.610;2023-04-09T09:24:47;65501.63;;;-149.14;100.00
58753;BME280;44525;46.052;13.610;2023-04-09T09:30:23;65501.63;;;-149.14;100.00
58753;BME280;44525;46.052;13.610;2023-04-09T09:33:02;65501.63;;;-149.14;100.00
58753;BME280;44525;46.052;13.610;2023-04-09T09:35:28;65501.63;;;-149.14;100.00
58753;BME280;44525;46.052;13.610;2023-04-09T09:38:00;65501.63;;;-149.14;100.00
58753;BME280;44525;46.052;13.610;2023-04-09T09:40:26;65501.63;;;-149.14;100.00
58753;BME280;44525;46.052;13.610;2023-04-09T09:42:56;65501.63;;;-149.14;100.00
58753;BME280;44525;46.052;13.610;2023-04-09T09:45:21;65501.63;;;-149.14;100.00
58753;BME280;44525;46.052;13.610;2023-04-09T09:47:48;65501.63;;;-149.14;100.00
58753;BME280;44525;46.052;13.610;2023-04-09T09:50:13;65501.63;;;-149.14;100.00
58753;BME280;44525;46.052;13.610;2023-04-09T09:52:38;65501.63;;;-149.14;100.00
58753;BME280;44525;46.052;13.610;2023-04-09T09:55:07;65501.63;;;-149.14;100.00
58753;BME280;44525;46.052;13.610;2023-04-09T09:57:33;65501.63;;;-149.14;100.00
58753;BME280;44525;46.052;13.610;2023-04-09T10:00:02;65501.63;;;-149.14;100.00
58753;BME280;44525;46.052;13.610;2023-04-09T10:02:30;65501.63;;;16.56;100.00
58753;BME280;44525;46.052;13.610;2023-04-09T10:05:01;65501.63;;;-149.14;100.00
58753;BME280;44525;46.052;13.610;2023-04-09T10:07:27;65501.63;;;-149.14;100.00
58753;BME280;44525;46.052;13.610;2023-04-09T10:09:53;65501.63;;;-149.14;100.00
58753;BME280;44525;46.052;13.610;2023-04-09T10:12:20;65501.63;;;-149.14;100.00
58753;BME280;44525;46.052;13.610;2023-04-09T10:14:47;65501.63;;;-149.14;100.00
58753;BME280;44525;46.052;13.610;2023-04-09T10:17:13;65501.63;;;-149.14;100.00
58753;BME280;44525;46.052;13.610;2023-04-09T10:19:40;65501.63;;;17.54;100.00
58753;BME280;44525;46.052;13.610;2023-04-09T10:22:08;65501.63;;;-149.14;100.00
58753;BME280;44525;46.052;13.610;2023-04-09T10:24:34;65501.63;;;-149.14;100.00
58753;BME280;44525;46.052;13.610;2023-04-09T10:27:13;65501.63;;;-149.14;100.00
58753;BME280;44525;46.052;13.610;2023-04-09T10:29:57;65501.63;;;-149.14;100.00
58753;BME280;44525;46.052;13.610;2023-04-09T10:32:24;65501.63;;;-149.14;100.00
58753;BME280;44525;46.052;13.610;2023-04-09T10:34:52;65501.63;;;-149.14;100.00
58753;BME280;44525;46.052;13.610;2023-04-09T10:37:20;65501.63;;;-149.14;100.00
58753;BME280;44525;46.052;13.610;2023-04-09T10:39:46;65501.63;;;-149.14;100.00
58753;BME280;44525;46.052;13.610;2023-04-09T10:42:12;65501.63;;;-149.14;100.00
58753;BME280;44525;46.052;13.610;2023-04-09T10:44:38;65501.63;;;-149.14;100.00
58753;BME280;44525;46.052;13.610;2023-04-09T10:47:05;65501.63;;;-149.14;100.00
58753;BME280;44525;46.052;13.610;2023-04-09T10:49:49;65501.63;;;-149.14;100.00
58753;BME280;44525;46.052;13.610;2023-04-09T10:52:15;65501.63;;;-149.14;100.00
58753;BME280;44525;46.052;13.610;2023-04-09T10:54:41;65501.63;;;-149.14;100.00
58753;BME280;44525;46.052;13.610;2023-04-09T11:02:01;65501.63;;;-149.14;100.00
58753;BME280;44525;46.052;13.610;2023-04-09T11:04:36;65501.63;;;-149.14;100.00
58753;BME280;44525;46.052;13.610;2023-04-09T11:07:03;65501.63;;;-149.14;100.00
58753;BME280;44525;46.052;13.610;2023-04-09T11:09:30;65501.63;;;-149.14;100.00
58753;BME280;44525;46.052;13.610;2023-04-09T11:11:58;65501.63;;;-149.14;100.00
58753;BME280;44525;46.052;13.610;2023-04-09T11:14:23;65501.63;;;-149.14;100.00
58753;BME280;44525;46.052;13.610;2023-04-09T11:16:49;65501.63;;;-149.14;100.00
58753;BME280;44525;46.052;13.610;2023-04-09T11:19:15;65501.63;;;-149.14;100.00
58753;BME280;44525;46.052;13.610;2023-04-09T11:21:41;65501.63;;;-149.14;100.00
58753;BME280;44525;46.052;13.610;2023-04-09T11:24:10;65501.63;;;19.41;100.00
58753;BME280;44525;46.052;13.610;2023-04-09T11:26:36;65501.63;;;-149.14;100.00
58753;BME280;44525;46.052;13.610;2023-04-09T11:29:05;65501.63;;;-149.14;100.00
58753;BME280;44525;46.052;13.610;2023-04-09T11:31:32;65501.63;;;-149.14;100.00
58753;BME280;44525;46.052;13.610;2023-04-09T11:33:57;65501.63;;;-149.14;100.00
58753;BME280;44525;46.052;13.610;2023-04-09T11:36:22;65501.63;;;-149.14;100.00
58753;BME280;44525;46.052;13.610;2023-04-09T11:38:48;65501.63;;;-149.14;100.00
58753;BME280;44525;46.052;13.610;2023-04-09T11:41:14;65501.63;;;-149.14;100.00
58753;BME280;44525;46.052;13.610;2023-04-09T11:43:39;65501.63;;;-149.14;100.00
58753;BME280;44525;46.052;13.610;2023-04-09T11:46:05;65501.63;;;-149.14;100.00
58753;BME280;44525;46.052;13.610;2023-04-09T11:48:31;65501.63;;;-149.14;100.00
58753;BME280;44525;46.052;13.610;2023-04-09T11:50:57;65501.63;;;-149.14;100.00
58753;BME280;44525;46.052;13.610;2023-04-09T11:53:22;65501.63;;;-149.14;100.00
58753;BME280;44525;46.052;13.610;2023-04-09T11:55:49;65501.63;;;-149.14;100.00
58753;BME280;44525;46.052;13.610;2023-04-09T11:58:15;65501.63;;;19.39;100.00
58753;BME280;44525;46.052;13.610;2023-04-09T12:00:41;65501.63;;;16.66;100.00
58753;BME280;44525;46.052;13.610;2023-04-09T12:03:06;65501.63;;;-149.14;100.00
58753;BME280;44525;46.052;13.610;2023-04-09T12:05:34;65501.63;;;-149.14;100.00
58753;BME280;44525;46.052;13.610;2023-04-09T12:08:03;65501.63;;;-149.14;100.00
58753;BME280;44525;46.052;13.610;2023-04-09T12:10:32;65501.63;;;-149.14;100.00
58753;BME280;44525;46.052;13.610;2023-04-09T12:13:07;65501.63;;;-149.14;100.00
58753;BME280;44525;46.052;13.610;2023-04-09T12:15:37;65501.63;;;-149.14;100.00
58753;BME280;44525;46.052;13.610;2023-04-09T12:18:08;65501.63;;;-149.14;100.00
58753;BME280;44525;46.052;13.610;2023-04-09T12:20:37;65501.63;;;-149.14;100.00
58753;BME280;44525;46.052;13.610;2023-04-09T12:23:03;65501.63;;;-149.14;100.00
58753;BME280;44525;46.052;13.610;2023-04-09T12:25:30;65501.63;;;-149.14;100.00
58753;BME280;44525;46.052;13.610;2023-04-09T12:27:55;65501.63;;;19.41;100.00
58753;BME280;44525;46.052;13.610;2023-04-09T12:30:21;65501.63;;;-149.14;100.00
58753;BME280;44525;46.052;13.610;2023-04-09T12:32:46;65501.63;;;-149.14;100.00
58753;BME280;44525;46.052;13.610;2023-04-09T12:35:12;65501.63;;;-149.14;100.00
58753;BME280;44525;46.052;13.610;2023-04-09T12:37:37;65501.63;;;-149.14;100.00
58753;BME280;44525;46.052;13.610;2023-04-09T12:40:03;65501.63;;;-149.14;100.00
58753;BME280;44525;46.052;13.610;2023-04-09T12:42:28;65501.63;;;-149.14;100.00
58753;BME280;44525;46.052;13.610;2023-04-09T12:44:53;65501.63;;;-149.14;100.00
58753;BME280;44525;46.052;13.610;2023-04-09T12:47:18;65501.63;;;-149.14;100.00
58753;BME280;44525;46.052;13.610;2023-04-09T12:49:44;65501.63;;;19.39;100.00
58753;BME280;44525;46.052;13.610;2023-04-09T12:52:10;65501.63;;;-149.14;100.00
58753;BME280;44525;46.052;13.610;2023-04-09T12:54:36;65501.63;;;-149.14;100.00
58753;BME280;44525;46.052;13.610;2023-04-09T12:57:01;65501.63;;;-149.14;100.00
58753;BME280;44525;46.052;13.610;2023-04-09T12:59:26;65501.63;;;-149.14;100.00
58753;BME280;44525;46.052;13.610;2023-04-09T13:01:51;65501.63;;;-149.14;100.00